createdAt,value
2023-03-03T00:00:35.719Z,11.97
2023-03-03T00:03:07.608Z,15.37
2023-03-03T00:05:36.543Z,13.37
2023-03-03T00:08:06.048Z,11.00
2023-03-03T00:10:34.436Z,12.13
2023-03-03T00:13:02.850Z,13.60
2023-03-03T00:15:33.006Z,13.30
2023-03-03T00:18:01.825Z,13.30
2023-03-03T00:20:40.581Z,10.53
2023-03-03T00:23:21.300Z,10.83
2023-03-03T00:25:53.028Z,9.20
2023-03-03T00:28:28.649Z,10.40
2023-03-03T00:30:59.957Z,12.80
2023-03-03T00:33:33.180Z,13.23
2023-03-03T00:36:21.917Z,10.90
2023-03-03T00:38:50.661Z,13.80
2023-03-03T00:41:24.320Z,11.13
2023-03-03T00:43:53.396Z,12.03
2023-03-03T00:46:25.133Z,10.67
2023-03-03T00:48:53.830Z,9.70
2023-03-03T00:51:30.470Z,8.50
2023-03-03T00:53:59.870Z,19.03
2023-03-03T00:56:29.550Z,10.73
2023-03-03T00:58:57.870Z,11.40
2023-03-03T01:01:28.219Z,11.87
2023-03-03T01:03:56.568Z,8.53
2023-03-03T01:06:25.345Z,8.13
2023-03-03T01:08:54.284Z,7.57
2023-03-03T01:11:25.922Z,14.63
2023-03-03T01:13:54.774Z,12.43
2023-03-03T01:16:23.269Z,10.33
2023-03-03T01:18:53.052Z,9.90
2023-03-03T01:21:21.503Z,10.10
2023-03-03T01:23:49.770Z,15.60
2023-03-03T01:26:18.080Z,9.90
2023-03-03T01:28:46.730Z,13.73
2023-03-03T01:31:15.112Z,11.83
2023-03-03T01:33:43.658Z,11.40
2023-03-03T01:36:13.611Z,14.27
2023-03-03T01:38:41.925Z,8.73
2023-03-03T01:41:10.285Z,12.17
2023-03-03T01:43:45.723Z,13.23
2023-03-03T01:46:40.943Z,9.63
2023-03-03T01:49:14.789Z,11.30
2023-03-03T01:51:52.067Z,11.53
2023-03-03T01:54:26.948Z,13.07
2023-03-03T01:56:58.713Z,17.23
2023-03-03T01:59:30.747Z,10.90
2023-03-03T02:01:59.185Z,14.37
2023-03-03T02:04:28.430Z,11.67
2023-03-03T02:07:02.140Z,13.27
2023-03-03T02:09:38.856Z,12.93
2023-03-03T02:12:10.192Z,15.30
2023-03-03T02:14:38.811Z,13.17
2023-03-03T02:17:07.823Z,12.63
2023-03-03T02:19:43.571Z,12.70
2023-03-03T02:22:16.079Z,9.80
2023-03-03T02:24:50.896Z,11.03
2023-03-03T02:27:20.790Z,16.70
2023-03-03T02:29:49.184Z,10.13
2023-03-03T02:32:17.521Z,9.20
2023-03-03T02:34:49.479Z,12.40
2023-03-03T02:37:18.786Z,10.00
2023-03-03T02:39:47.616Z,15.00
2023-03-03T02:42:20.099Z,11.23
2023-03-03T02:44:49.926Z,9.07
2023-03-03T02:47:18.259Z,10.37
2023-03-03T02:49:46.605Z,10.90
2023-03-03T02:52:18.217Z,10.87
2023-03-03T02:54:46.552Z,9.60
2023-03-03T02:57:15.495Z,13.63
2023-03-03T02:59:44.046Z,14.40
2023-03-03T03:02:14.132Z,14.60
2023-03-03T03:04:42.570Z,12.07
2023-03-03T03:07:11.894Z,10.00
2023-03-03T03:09:40.254Z,15.03
2023-03-03T03:12:09.789Z,11.63
2023-03-03T03:14:38.128Z,14.00
2023-03-03T03:17:06.577Z,15.20
2023-03-03T03:19:36.290Z,15.27
2023-03-03T03:22:05.020Z,15.47
2023-03-03T03:24:33.583Z,18.87
2023-03-03T03:27:01.917Z,21.97
2023-03-03T03:29:30.342Z,22.07
2023-03-03T03:31:58.764Z,17.60
2023-03-03T03:34:27.362Z,35.03
2023-03-03T03:36:57.273Z,12.13
2023-03-03T03:39:25.621Z,14.23
2023-03-03T03:41:54.035Z,13.97
2023-03-03T03:44:24.046Z,11.93
2023-03-03T03:46:52.486Z,18.20
2023-03-03T03:49:21.022Z,15.07
2023-03-03T03:51:49.714Z,16.77
2023-03-03T03:54:19.498Z,10.73
2023-03-03T03:56:47.865Z,10.70
2023-03-03T03:59:16.262Z,10.73
2023-03-03T04:01:44.577Z,12.90
2023-03-03T04:04:12.905Z,11.27
2023-03-03T04:06:41.404Z,13.40
2023-03-03T04:09:09.860Z,18.70
2023-03-03T04:11:39.659Z,14.13
2023-03-03T04:14:08.473Z,16.37
2023-03-03T04:16:36.883Z,16.03
2023-03-03T04:19:05.374Z,14.83
2023-03-03T04:21:33.710Z,12.27
2023-03-03T04:24:02.137Z,12.87
2023-03-03T04:26:31.180Z,11.43
2023-03-03T04:29:01.750Z,12.70
2023-03-03T04:31:30.151Z,13.70
2023-03-03T04:33:58.501Z,16.07
2023-03-03T04:36:27.131Z,14.20
2023-03-03T04:38:55.503Z,13.17
2023-03-03T04:41:24.118Z,14.47
2023-03-03T04:43:52.414Z,14.73
2023-03-03T04:46:22.242Z,15.47
2023-03-03T04:48:50.667Z,15.53
2023-03-03T04:51:18.975Z,14.00
2023-03-03T04:53:47.541Z,15.00
2023-03-03T04:56:16.349Z,13.60
2023-03-03T04:58:44.725Z,12.00
2023-03-03T05:01:15.214Z,16.10
2023-03-03T05:03:44.981Z,15.63
2023-03-03T05:06:13.506Z,14.00
2023-03-03T05:08:43.307Z,12.77
2023-03-03T05:11:11.681Z,17.77
2023-03-03T05:13:39.977Z,14.03
2023-03-03T05:16:09.502Z,12.93
2023-03-03T05:18:38.048Z,20.83
2023-03-03T05:21:09.047Z,14.20
2023-03-03T05:23:37.351Z,10.87
2023-03-03T05:26:06.199Z,14.07
2023-03-03T05:28:34.608Z,21.00
2023-03-03T05:31:02.971Z,11.57
2023-03-03T05:33:31.569Z,16.50
2023-03-03T05:36:00.126Z,14.13
2023-03-03T05:38:29.853Z,17.10
2023-03-03T05:40:58.165Z,18.33
2023-03-03T05:43:26.581Z,18.23
2023-03-03T05:45:57.899Z,13.37
2023-03-03T05:48:26.383Z,14.27
2023-03-03T05:50:55.181Z,17.70
2023-03-03T05:53:23.486Z,14.77
2023-03-03T05:55:53.276Z,13.33
2023-03-03T05:58:23.167Z,18.60
2023-03-03T06:00:51.468Z,15.20
2023-03-03T06:03:19.842Z,17.20
2023-03-03T06:05:48.258Z,16.67
2023-03-03T06:08:16.732Z,19.03
2023-03-03T06:10:44.994Z,13.43
2023-03-03T06:13:14.757Z,28.13
2023-03-03T06:15:43.356Z,15.43
2023-03-03T06:18:11.728Z,12.97
2023-03-03T06:20:40.173Z,13.80
2023-03-03T06:23:08.953Z,12.60
2023-03-03T06:25:37.395Z,18.37
2023-03-03T06:28:05.741Z,11.83
2023-03-03T06:30:35.720Z,17.67
2023-03-03T06:33:04.057Z,13.17
2023-03-03T06:35:32.608Z,12.50
2023-03-03T06:38:01.177Z,12.60
2023-03-03T06:40:29.599Z,11.60
2023-03-03T06:42:58.017Z,11.20
2023-03-03T06:45:26.422Z,12.47
2023-03-03T06:47:56.146Z,14.13
2023-03-03T06:50:24.543Z,11.73
2023-03-03T06:53:03.428Z,14.20
2023-03-03T06:55:31.913Z,11.30
2023-03-03T06:58:01.522Z,11.20
2023-03-03T07:00:31.351Z,9.80
2023-03-03T07:03:03.335Z,14.73
2023-03-03T07:05:33.145Z,12.10
2023-03-03T07:08:01.639Z,13.43
2023-03-03T07:10:31.827Z,13.80
2023-03-03T07:13:12.172Z,10.50
2023-03-03T07:15:40.572Z,11.30
2023-03-03T07:18:32.741Z,19.13
2023-03-03T07:21:01.857Z,15.10
2023-03-03T07:23:42.895Z,13.57
2023-03-03T07:26:14.828Z,13.00
2023-03-03T07:28:45.164Z,10.90
2023-03-03T07:31:32.753Z,11.10
2023-03-03T07:34:06.297Z,12.17
2023-03-03T07:36:37.720Z,14.50
2023-03-03T07:39:23.381Z,11.90
2023-03-03T07:41:51.690Z,12.90
2023-03-03T07:44:23.877Z,9.77
2023-03-03T07:46:52.814Z,10.20
2023-03-03T07:49:26.039Z,15.30
2023-03-03T07:51:59.202Z,8.47
2023-03-03T07:54:38.230Z,11.10
2023-03-03T07:57:16.772Z,13.20
2023-03-03T07:59:51.690Z,10.17
2023-03-03T08:02:38.832Z,15.83
2023-03-03T08:05:31.329Z,9.90
2023-03-03T08:08:30.747Z,11.47
2023-03-03T08:11:02.854Z,12.20
2023-03-03T08:13:39.213Z,9.67
2023-03-03T08:16:27.713Z,15.30
2023-03-03T08:18:59.762Z,10.80
2023-03-03T08:21:32.342Z,13.60
2023-03-03T08:24:00.729Z,9.10
2023-03-03T08:26:29.412Z,9.53
2023-03-03T08:28:57.779Z,13.80
2023-03-03T08:31:40.194Z,10.90
2023-03-03T08:34:09.516Z,9.13
2023-03-03T08:36:39.270Z,12.10
2023-03-03T08:39:07.721Z,9.10
2023-03-03T08:41:36.195Z,10.27
2023-03-03T08:44:04.768Z,17.63
2023-03-03T08:46:33.434Z,17.67
2023-03-03T08:49:02.264Z,10.20
2023-03-03T08:51:30.667Z,9.97
2023-03-03T08:54:00.360Z,10.13
2023-03-03T08:56:28.797Z,11.00
2023-03-03T08:59:02.512Z,12.03
2023-03-03T09:01:31.751Z,9.63
2023-03-03T09:04:01.242Z,11.93
2023-03-03T09:06:29.712Z,8.60
2023-03-03T09:08:59.623Z,7.63
2023-03-03T09:11:30.799Z,7.60
2023-03-03T09:14:08.073Z,6.30
2023-03-03T09:16:40.487Z,8.17
2023-03-03T09:19:21.610Z,11.10
2023-03-03T09:21:50.671Z,50.57
2023-03-03T09:24:27.505Z,18.40
2023-03-03T09:26:56.289Z,10.27
2023-03-03T09:29:29.907Z,8.97
2023-03-03T09:32:01.175Z,7.70
2023-03-03T09:34:39.919Z,7.03
2023-03-03T09:37:23.373Z,9.63
2023-03-03T09:39:54.758Z,19.47
2023-03-03T09:42:44.795Z,7.50
2023-03-03T09:45:42.276Z,8.00
2023-03-03T09:48:40.295Z,7.40
2023-03-03T09:51:20.101Z,6.97
2023-03-03T09:54:02.366Z,9.90
2023-03-03T09:56:36.171Z,7.77
2023-03-03T09:59:24.246Z,12.87
2023-03-03T10:02:11.048Z,8.80
2023-03-03T10:04:49.266Z,7.00
2023-03-03T10:07:29.036Z,20.00
2023-03-03T10:10:14.591Z,6.03
2023-03-03T10:12:53.757Z,7.10
2023-03-03T10:15:36.873Z,6.83
2023-03-03T10:18:17.440Z,9.30
2023-03-03T10:20:55.697Z,6.63
2023-03-03T10:23:39.378Z,7.40
2023-03-03T10:26:18.719Z,9.37
2023-03-03T10:29:22.484Z,7.63
2023-03-03T10:32:03.560Z,7.40
2023-03-03T10:34:54.958Z,7.93
2023-03-03T10:37:30.824Z,6.00
2023-03-03T10:40:20.039Z,6.40
2023-03-03T10:43:29.712Z,7.20
2023-03-03T10:46:21.883Z,8.60
2023-03-03T10:49:05.807Z,6.73
2023-03-03T10:51:43.412Z,6.93
2023-03-03T10:54:40.892Z,7.33
2023-03-03T10:57:17.562Z,7.47
2023-03-03T10:59:57.851Z,8.80
2023-03-03T11:02:37.053Z,6.43
2023-03-03T11:05:19.210Z,16.33
2023-03-03T11:07:51.723Z,6.27
2023-03-03T11:10:29.605Z,9.00
2023-03-03T11:13:11.406Z,7.17
2023-03-03T11:15:56.603Z,10.53
2023-03-03T11:18:39.328Z,6.90
2023-03-03T11:21:17.433Z,12.97
2023-03-03T11:24:29.950Z,7.70
2023-03-03T11:27:20.504Z,5.80
2023-03-03T11:30:07.685Z,6.83
2023-03-03T11:32:44.207Z,7.43
2023-03-03T11:35:25.129Z,10.10
2023-03-03T11:38:04.950Z,6.90
2023-03-03T11:40:44.585Z,9.20
2023-03-03T11:43:35.369Z,8.23
2023-03-03T11:46:09.402Z,8.50
2023-03-03T11:48:46.069Z,9.20
2023-03-03T11:51:23.062Z,10.10
2023-03-03T11:54:03.048Z,9.60
2023-03-03T11:56:37.515Z,7.33
2023-03-03T11:59:34.560Z,7.10
2023-03-03T12:02:12.826Z,6.53
2023-03-03T12:04:45.048Z,7.50
2023-03-03T12:07:25.633Z,7.60
2023-03-03T12:10:04.323Z,8.10
2023-03-03T12:12:39.458Z,6.03
2023-03-03T12:15:21.514Z,7.77
2023-03-03T12:18:17.692Z,6.03
2023-03-03T12:20:56.421Z,10.13
2023-03-03T12:23:46.873Z,11.83
2023-03-03T12:26:20.888Z,10.23
2023-03-03T12:28:55.093Z,8.20
2023-03-03T12:31:36.981Z,8.47
2023-03-03T12:34:12.727Z,6.10
2023-03-03T12:36:57.431Z,11.00
2023-03-03T12:39:38.073Z,9.47
2023-03-03T12:42:17.041Z,8.07
2023-03-03T12:44:52.246Z,6.03
2023-03-03T12:47:29.852Z,8.07
2023-03-03T12:50:15.872Z,11.47
2023-03-03T12:52:54.153Z,9.90
2023-03-03T12:55:35.073Z,7.33
2023-03-03T12:58:13.442Z,7.47
2023-03-03T13:00:51.176Z,8.00
2023-03-03T13:03:39.034Z,8.00
2023-03-03T13:06:28.865Z,9.10
2023-03-03T13:09:20.108Z,7.57
2023-03-03T13:12:22.402Z,7.63
2023-03-03T13:14:57.953Z,7.77
2023-03-03T13:17:31.303Z,10.90
2023-03-03T13:20:01.865Z,6.93
2023-03-03T13:22:43.363Z,10.40
2023-03-03T13:25:30.661Z,8.00
2023-03-03T13:28:09.573Z,6.10
2023-03-03T13:30:41.470Z,9.33
2023-03-03T13:33:12.963Z,8.77
2023-03-03T13:35:46.747Z,20.30
2023-03-03T13:38:21.253Z,10.33
2023-03-03T13:40:55.903Z,8.67
2023-03-03T13:43:31.198Z,10.57
2023-03-03T13:46:09.605Z,11.87
2023-03-03T13:48:56.585Z,16.20
2023-03-03T13:51:35.167Z,12.30
2023-03-03T13:54:17.839Z,11.17
2023-03-03T13:57:18.785Z,12.40
2023-03-03T13:59:58.933Z,13.43
2023-03-03T14:02:58.795Z,12.00
2023-03-03T14:05:35.073Z,12.27
2023-03-03T14:08:14.540Z,16.20
2023-03-03T14:10:48.963Z,12.40
2023-03-03T14:13:24.610Z,12.10
2023-03-03T14:15:59.812Z,11.33
2023-03-03T14:18:32.212Z,13.03
2023-03-03T14:21:07.169Z,19.23
2023-03-03T14:23:51.945Z,11.87
2023-03-03T14:26:20.349Z,13.40
2023-03-03T14:28:51.701Z,12.37
2023-03-03T14:31:24.269Z,12.30
2023-03-03T14:34:00.774Z,16.63
2023-03-03T14:36:33.009Z,15.53
2023-03-03T14:39:02.416Z,17.83
2023-03-03T14:41:41.807Z,16.40
2023-03-03T14:44:28.757Z,21.00
2023-03-03T14:47:13.775Z,14.07
2023-03-03T14:49:42.812Z,13.80
2023-03-03T14:52:22.801Z,14.17
2023-03-03T14:54:53.324Z,16.83
2023-03-03T14:57:24.133Z,14.03
2023-03-03T15:00:02.745Z,17.70
2023-03-03T15:02:39.322Z,12.30
2023-03-03T15:05:20.832Z,17.20
2023-03-03T15:07:53.313Z,12.80
2023-03-03T15:10:36.573Z,17.30
2023-03-03T15:13:29.290Z,12.77
2023-03-03T15:16:06.570Z,14.00
2023-03-03T15:18:52.591Z,18.20
2023-03-03T15:21:26.328Z,12.10
2023-03-03T15:24:02.576Z,10.03
2023-03-03T15:26:45.645Z,14.10
2023-03-03T15:29:18.947Z,11.07
2023-03-03T15:31:53.932Z,12.93
2023-03-03T15:34:44.639Z,10.67
2023-03-03T15:37:28.882Z,12.20
2023-03-03T15:40:05.270Z,35.13
2023-03-03T15:42:40.388Z,18.90
2023-03-03T15:45:18.488Z,10.20
2023-03-03T15:48:04.123Z,8.57
2023-03-03T15:50:43.354Z,9.70
2023-03-03T15:53:37.244Z,11.23
2023-03-03T15:56:22.455Z,11.80
2023-03-03T15:59:28.881Z,11.43
2023-03-03T16:02:11.248Z,19.13
2023-03-03T16:04:45.320Z,8.80
2023-03-03T16:07:29.518Z,12.33
2023-03-03T16:10:12.308Z,11.60
2023-03-03T16:12:54.393Z,10.83
2023-03-03T16:15:50.857Z,12.90
2023-03-03T16:18:29.761Z,8.63
2023-03-03T16:21:14.225Z,8.80
2023-03-03T16:23:49.376Z,14.30
2023-03-03T16:26:33.605Z,10.63
2023-03-03T16:29:22.948Z,10.07
2023-03-03T16:31:58.452Z,13.53
2023-03-03T16:34:35.526Z,21.03
2023-03-03T16:37:14.068Z,17.87
2023-03-03T16:39:55.343Z,16.40
2023-03-03T16:42:29.433Z,12.13
2023-03-03T16:45:23.157Z,12.80
2023-03-03T16:48:11.736Z,12.00
2023-03-03T16:50:47.570Z,11.63
2023-03-03T16:53:27.694Z,9.43
2023-03-03T16:56:08.202Z,13.07
2023-03-03T16:58:50.367Z,14.03
2023-03-03T17:01:27.168Z,18.90
2023-03-03T17:04:01.935Z,11.57
2023-03-03T17:06:37.256Z,14.63
2023-03-03T17:09:33.049Z,11.80
2023-03-03T17:12:15.726Z,14.43
2023-03-03T17:15:04.016Z,17.23
2023-03-03T17:17:41.286Z,32.83
2023-03-03T17:20:22.309Z,21.43
2023-03-03T17:23:02.056Z,18.60
2023-03-03T17:25:38.798Z,17.83
2023-03-03T17:28:30.497Z,18.43
2023-03-03T17:31:09.560Z,19.27
2023-03-03T17:34:16.339Z,25.07
2023-03-03T17:36:56.754Z,22.57
2023-03-03T17:39:55.788Z,23.10
2023-03-03T17:42:31.046Z,24.23
2023-03-03T17:45:07.675Z,27.90
2023-03-03T17:47:52.757Z,23.47
2023-03-03T17:50:37.985Z,19.17
2023-03-03T17:53:30.174Z,20.60
2023-03-03T17:56:13.458Z,24.37
2023-03-03T17:59:27.698Z,20.37
2023-03-03T18:02:38.876Z,23.03
2023-03-03T18:05:33.425Z,28.77
2023-03-03T18:08:25.008Z,46.20
2023-03-03T18:11:16.793Z,38.57
2023-03-03T18:14:00.524Z,29.03
2023-03-03T18:16:46.272Z,27.83
2023-03-03T18:19:34.593Z,33.73
2023-03-03T18:22:08.857Z,22.20
2023-03-03T18:24:40.896Z,15.87
2023-03-03T18:27:40.442Z,19.10
2023-03-03T18:30:50.245Z,15.57
2023-03-03T18:33:43.946Z,18.90
2023-03-03T18:36:39.118Z,23.10
2023-03-03T18:39:15.732Z,23.00
2023-03-03T18:42:07.287Z,21.73
2023-03-03T18:44:36.027Z,17.83
2023-03-03T18:47:05.295Z,19.43
2023-03-03T18:49:56.101Z,18.27
2023-03-03T18:52:29.885Z,17.53
2023-03-03T18:55:26.453Z,17.47
2023-03-03T18:58:30.620Z,20.17
2023-03-03T19:01:02.497Z,16.07
2023-03-03T19:03:35.535Z,16.80
2023-03-03T19:06:05.851Z,14.50
2023-03-03T19:08:51.389Z,19.93
2023-03-03T19:11:37.845Z,20.53
2023-03-03T19:14:33.299Z,17.13
2023-03-03T19:17:39.826Z,17.40
2023-03-03T19:20:15.235Z,20.13
2023-03-03T19:22:48.327Z,25.83
2023-03-03T19:25:25.160Z,19.90
2023-03-03T19:28:07.147Z,24.87
2023-03-03T19:30:47.008Z,18.80
2023-03-03T19:33:43.009Z,42.17
2023-03-03T19:36:38.381Z,35.90
2023-03-03T19:39:26.266Z,46.03
2023-03-03T19:42:05.596Z,48.37
2023-03-03T19:44:51.295Z,31.90
2023-03-03T19:47:31.041Z,28.27
2023-03-03T19:50:10.563Z,26.23
2023-03-03T19:52:44.937Z,30.73
2023-03-03T19:55:24.510Z,32.73
2023-03-03T19:58:11.684Z,32.10
2023-03-03T20:00:43.593Z,32.70
2023-03-03T20:03:38.555Z,29.60
2023-03-03T20:06:18.591Z,26.77
2023-03-03T20:08:57.635Z,30.57
2023-03-03T20:11:46.251Z,22.07
2023-03-03T20:14:33.160Z,20.53
2023-03-03T20:17:22.693Z,20.40
2023-03-03T20:19:57.273Z,17.17
2023-03-03T20:22:38.297Z,21.40
2023-03-03T20:25:28.820Z,16.40
2023-03-03T20:28:04.789Z,23.77
2023-03-03T20:30:52.885Z,16.83
2023-03-03T20:33:34.882Z,21.40
2023-03-03T20:36:12.311Z,22.97
2023-03-03T20:38:51.567Z,24.87
2023-03-03T20:41:30.258Z,30.27
2023-03-03T20:44:10.435Z,24.70
2023-03-03T20:46:49.011Z,25.30
2023-03-03T20:49:35.546Z,26.53
2023-03-03T20:52:11.847Z,20.60
2023-03-03T20:54:50.813Z,20.90
2023-03-03T20:57:33.937Z,21.10
2023-03-03T21:00:07.067Z,21.57
2023-03-03T21:02:42.422Z,21.63
2023-03-03T21:05:14.796Z,17.07
2023-03-03T21:07:54.833Z,18.53
2023-03-03T21:10:25.319Z,19.47
2023-03-03T21:12:55.554Z,22.13
2023-03-03T21:15:28.192Z,23.50
2023-03-03T21:17:59.499Z,21.37
2023-03-03T21:20:31.628Z,26.20
2023-03-03T21:23:01.825Z,22.40
2023-03-03T21:25:48.046Z,27.17
2023-03-03T21:28:18.451Z,37.33
2023-03-03T21:31:11.621Z,34.00
2023-03-03T21:33:52.820Z,65.47
2023-03-03T21:36:24.660Z,44.23
2023-03-03T21:38:54.769Z,34.37
2023-03-03T21:41:24.245Z,28.00
2023-03-03T21:43:54.201Z,28.67
2023-03-03T21:46:24.605Z,30.60
2023-03-03T21:48:54.474Z,34.17
2023-03-03T21:51:24.462Z,28.93
2023-03-03T21:53:52.837Z,40.30
2023-03-03T21:56:21.136Z,48.00
2023-03-03T21:58:49.512Z,47.43
2023-03-03T22:01:17.966Z,36.93
2023-03-03T22:03:47.679Z,34.00
2023-03-03T22:06:17.697Z,31.33
2023-03-03T22:08:46.219Z,29.10
2023-03-03T22:11:15.639Z,27.20
2023-03-03T22:13:44.114Z,31.07
2023-03-03T22:16:13.274Z,27.83
2023-03-03T22:18:41.619Z,28.07
2023-03-03T22:21:09.970Z,33.00
2023-03-03T22:23:39.748Z,30.47
2023-03-03T22:26:08.372Z,31.90
2023-03-03T22:28:36.745Z,34.03
2023-03-03T22:31:05.274Z,35.70
2023-03-03T22:33:33.689Z,35.93
2023-03-03T22:36:02.215Z,35.10
2023-03-03T22:38:31.201Z,40.47
2023-03-03T22:41:00.988Z,30.97
2023-03-03T22:43:29.827Z,33.23
2023-03-03T22:45:58.375Z,26.63
2023-03-03T22:48:28.271Z,29.07
2023-03-03T22:50:56.605Z,30.77
2023-03-03T22:53:25.647Z,31.87
2023-03-03T22:55:54.230Z,31.30
2023-03-03T22:58:25.620Z,28.37
2023-03-03T23:00:55.093Z,26.70
2023-03-03T23:03:23.900Z,29.83
2023-03-03T23:05:52.563Z,33.30
2023-03-03T23:08:22.198Z,32.60
2023-03-03T23:10:50.523Z,32.47
2023-03-03T23:13:19.398Z,35.97
2023-03-03T23:15:49.214Z,38.60
2023-03-03T23:18:17.521Z,31.63
2023-03-03T23:20:46.228Z,42.77
2023-03-03T23:23:14.621Z,35.20
2023-03-03T23:25:42.987Z,36.60
2023-03-03T23:28:11.549Z,39.63
2023-03-03T23:30:40.245Z,36.17
2023-03-03T23:33:10.174Z,36.40
2023-03-03T23:35:38.565Z,30.40
2023-03-03T23:38:06.886Z,29.00
2023-03-03T23:40:35.306Z,29.20
2023-03-03T23:43:03.881Z,27.00
2023-03-03T23:45:32.126Z,23.10
2023-03-03T23:48:00.446Z,33.10
2023-03-03T23:50:30.200Z,38.00
2023-03-03T23:52:58.708Z,30.27
2023-03-03T23:55:26.983Z,27.23
2023-03-03T23:57:55.447Z,26.90
